Terminal Aerodrome Forecast
Issued by NWS Charleston, WV

Current Version | Previous Version | Text Only | Print | Product List | Glossary Off
Versions: 1 2 3 4 5 6 7 8 9 10 11 12 13 14 15 16 17 18 19 20 21 22 23

000
FTUS41 KRLX 191400 AAA
TAFBKW
TAF AMD
KBKW 191449Z 1915/2012 22010G18KT P6SM SCT200
     FM200500 23010G17KT P6SM BKN050
     FM200800 24009KT P6SM BKN025=

USA.gov is the U.S. government's official web portal to all federal, state and local government web resources and services.